sensor_id;sensor_type;location;lat;lon;timestamp;P1;durP1;ratioP1;P2;durP2;ratioP2
20888;SDS011;10604;51.976;7.594;2022-08-01T00:01:14;21.48;;;16.65;;
20888;SDS011;10604;51.976;7.594;2022-08-01T00:03:40;19.97;;;15.97;;
20888;SDS011;10604;51.976;7.594;2022-08-01T00:06:05;20.45;;;17.00;;
20888;SDS011;10604;51.976;7.594;2022-08-01T00:08:31;18.13;;;16.23;;
20888;SDS011;10604;51.976;7.594;2022-08-01T00:10:56;22.17;;;18.13;;
20888;SDS011;10604;51.976;7.594;2022-08-01T00:13:21;21.63;;;18.20;;
20888;SDS011;10604;51.976;7.594;2022-08-01T00:15:47;19.60;;;17.63;;
20888;SDS011;10604;51.976;7.594;2022-08-01T00:18:12;19.37;;;16.63;;
20888;SDS011;10604;51.976;7.594;2022-08-01T00:20:38;19.70;;;16.67;;
20888;SDS011;10604;51.976;7.594;2022-08-01T00:23:03;19.83;;;16.90;;
20888;SDS011;10604;51.976;7.594;2022-08-01T00:25:28;17.70;;;15.67;;
20888;SDS011;10604;51.976;7.594;2022-08-01T00:27:54;18.53;;;14.80;;
20888;SDS011;10604;51.976;7.594;2022-08-01T00:30:19;16.90;;;15.17;;
20888;SDS011;10604;51.976;7.594;2022-08-01T00:32:44;16.70;;;14.90;;
20888;SDS011;10604;51.976;7.594;2022-08-01T00:35:10;17.90;;;15.10;;
20888;SDS011;10604;51.976;7.594;2022-08-01T00:37:36;15.68;;;13.90;;
20888;SDS011;10604;51.976;7.594;2022-08-01T00:40:02;17.07;;;15.00;;
20888;SDS011;10604;51.976;7.594;2022-08-01T00:42:27;20.52;;;15.50;;
20888;SDS011;10604;51.976;7.594;2022-08-01T00:44:53;18.47;;;15.93;;
20888;SDS011;10604;51.976;7.594;2022-08-01T00:47:18;17.45;;;14.80;;
20888;SDS011;10604;51.976;7.594;2022-08-01T00:49:43;16.47;;;14.40;;
20888;SDS011;10604;51.976;7.594;2022-08-01T00:52:09;17.17;;;14.10;;
20888;SDS011;10604;51.976;7.594;2022-08-01T00:54:35;17.60;;;13.82;;
20888;SDS011;10604;51.976;7.594;2022-08-01T00:57:01;15.48;;;13.88;;
20888;SDS011;10604;51.976;7.594;2022-08-01T00:59:28;15.33;;;13.30;;
20888;SDS011;10604;51.976;7.594;2022-08-01T01:01:53;15.63;;;13.23;;
20888;SDS011;10604;51.976;7.594;2022-08-01T01:04:19;15.20;;;13.60;;
20888;SDS011;10604;51.976;7.594;2022-08-01T01:09:33;15.32;;;11.95;;
20888;SDS011;10604;51.976;7.594;2022-08-01T01:12:35;12.60;;;10.87;;
20888;SDS011;10604;51.976;7.594;2022-08-01T01:15:05;14.68;;;11.45;;
20888;SDS011;10604;51.976;7.594;2022-08-01T01:17:45;12.23;;;10.63;;
20888;SDS011;10604;51.976;7.594;2022-08-01T01:20:24;12.90;;;11.13;;
20888;SDS011;10604;51.976;7.594;2022-08-01T01:23:06;11.90;;;10.70;;
20888;SDS011;10604;51.976;7.594;2022-08-01T01:26:29;12.60;;;10.90;;
20888;SDS011;10604;51.976;7.594;2022-08-01T01:31:43;10.80;;;9.70;;
20888;SDS011;10604;51.976;7.594;2022-08-01T01:34:13;11.85;;;10.40;;
20888;SDS011;10604;51.976;7.594;2022-08-01T01:36:42;15.05;;;11.23;;
20888;SDS011;10604;51.976;7.594;2022-08-01T01:39:08;12.27;;;10.33;;
20888;SDS011;10604;51.976;7.594;2022-08-01T01:41:35;13.15;;;10.32;;
20888;SDS011;10604;51.976;7.594;2022-08-01T01:44:02;12.50;;;10.13;;
20888;SDS011;10604;51.976;7.594;2022-08-01T01:46:30;13.27;;;10.30;;
20888;SDS011;10604;51.976;7.594;2022-08-01T01:48:56;11.88;;;10.50;;
20888;SDS011;10604;51.976;7.594;2022-08-01T01:51:24;11.73;;;9.95;;
20888;SDS011;10604;51.976;7.594;2022-08-01T01:53:53;11.60;;;9.90;;
20888;SDS011;10604;51.976;7.594;2022-08-01T01:56:20;13.18;;;10.50;;
20888;SDS011;10604;51.976;7.594;2022-08-01T01:58:48;14.60;;;10.57;;
20888;SDS011;10604;51.976;7.594;2022-08-01T02:01:17;10.93;;;9.70;;
20888;SDS011;10604;51.976;7.594;2022-08-01T02:03:44;11.63;;;10.10;;
20888;SDS011;10604;51.976;7.594;2022-08-01T02:06:14;10.57;;;9.48;;
20888;SDS011;10604;51.976;7.594;2022-08-01T02:08:41;11.82;;;9.50;;
20888;SDS011;10604;51.976;7.594;2022-08-01T02:11:08;11.97;;;9.50;;
20888;SDS011;10604;51.976;7.594;2022-08-01T02:13:59;10.63;;;9.38;;
20888;SDS011;10604;51.976;7.594;2022-08-01T02:16:28;12.52;;;9.88;;
20888;SDS011;10604;51.976;7.594;2022-08-01T02:18:56;13.70;;;10.27;;
20888;SDS011;10604;51.976;7.594;2022-08-01T02:21:56;9.60;;;8.60;;
20888;SDS011;10604;51.976;7.594;2022-08-01T02:27:33;11.52;;;9.70;;
20888;SDS011;10604;51.976;7.594;2022-08-01T02:30:03;12.13;;;9.77;;
20888;SDS011;10604;51.976;7.594;2022-08-01T02:32:32;10.00;;;8.73;;
20888;SDS011;10604;51.976;7.594;2022-08-01T02:35:02;10.93;;;8.97;;
20888;SDS011;10604;51.976;7.594;2022-08-01T02:37:31;10.68;;;9.43;;
20888;SDS011;10604;51.976;7.594;2022-08-01T02:40:01;12.20;;;8.98;;
20888;SDS011;10604;51.976;7.594;2022-08-01T02:42:27;10.63;;;8.57;;
20888;SDS011;10604;51.976;7.594;2022-08-01T02:44:55;11.10;;;9.52;;
20888;SDS011;10604;51.976;7.594;2022-08-01T02:47:22;11.77;;;9.75;;
20888;SDS011;10604;51.976;7.594;2022-08-01T02:49:50;11.90;;;9.60;;
20888;SDS011;10604;51.976;7.594;2022-08-01T02:52:17;13.00;;;9.52;;
20888;SDS011;10604;51.976;7.594;2022-08-01T02:54:45;11.93;;;10.05;;
20888;SDS011;10604;51.976;7.594;2022-08-01T02:57:13;12.32;;;9.30;;
20888;SDS011;10604;51.976;7.594;2022-08-01T02:59:41;10.52;;;8.80;;
20888;SDS011;10604;51.976;7.594;2022-08-01T03:02:08;11.50;;;9.23;;
20888;SDS011;10604;51.976;7.594;2022-08-01T03:04:35;10.77;;;9.30;;
20888;SDS011;10604;51.976;7.594;2022-08-01T03:07:03;11.85;;;9.32;;
20888;SDS011;10604;51.976;7.594;2022-08-01T03:09:32;10.82;;;8.75;;
20888;SDS011;10604;51.976;7.594;2022-08-01T03:12:00;10.70;;;9.07;;
20888;SDS011;10604;51.976;7.594;2022-08-01T03:14:28;10.90;;;8.65;;
20888;SDS011;10604;51.976;7.594;2022-08-01T03:16:55;12.43;;;9.32;;
20888;SDS011;10604;51.976;7.594;2022-08-01T03:19:23;10.57;;;8.90;;
20888;SDS011;10604;51.976;7.594;2022-08-01T03:21:51;12.15;;;9.32;;
20888;SDS011;10604;51.976;7.594;2022-08-01T03:24:17;10.80;;;9.03;;
20888;SDS011;10604;51.976;7.594;2022-08-01T03:26:44;9.50;;;8.50;;
20888;SDS011;10604;51.976;7.594;2022-08-01T03:29:16;10.52;;;9.50;;
20888;SDS011;10604;51.976;7.594;2022-08-01T03:31:45;11.18;;;8.98;;
20888;SDS011;10604;51.976;7.594;2022-08-01T03:34:13;11.98;;;8.50;;
20888;SDS011;10604;51.976;7.594;2022-08-01T03:39:55;11.38;;;8.90;;
20888;SDS011;10604;51.976;7.594;2022-08-01T03:42:35;10.05;;;8.75;;
20888;SDS011;10604;51.976;7.594;2022-08-01T03:45:07;11.02;;;9.27;;
20888;SDS011;10604;51.976;7.594;2022-08-01T03:47:35;10.13;;;9.07;;
20888;SDS011;10604;51.976;7.594;2022-08-01T03:50:02;11.03;;;9.27;;
20888;SDS011;10604;51.976;7.594;2022-08-01T03:52:30;11.60;;;8.98;;
20888;SDS011;10604;51.976;7.594;2022-08-01T03:54:58;11.05;;;9.68;;
20888;SDS011;10604;51.976;7.594;2022-08-01T03:57:27;10.80;;;8.52;;
20888;SDS011;10604;51.976;7.594;2022-08-01T03:59:55;9.98;;;8.95;;
20888;SDS011;10604;51.976;7.594;2022-08-01T04:02:22;11.02;;;8.98;;
20888;SDS011;10604;51.976;7.594;2022-08-01T04:04:48;10.20;;;8.70;;
20888;SDS011;10604;51.976;7.594;2022-08-01T04:07:48;10.02;;;8.35;;
20888;SDS011;10604;51.976;7.594;2022-08-01T04:10:10;11.35;;;8.90;;
20888;SDS011;10604;51.976;7.594;2022-08-01T04:12:36;9.63;;;8.73;;
20888;SDS011;10604;51.976;7.594;2022-08-01T04:15:01;10.13;;;9.02;;
20888;SDS011;10604;51.976;7.594;2022-08-01T04:17:28;11.38;;;8.45;;
20888;SDS011;10604;51.976;7.594;2022-08-01T04:19:53;10.80;;;7.90;;
20888;SDS011;10604;51.976;7.594;2022-08-01T04:22:18;10.10;;;8.75;;
20888;SDS011;10604;51.976;7.594;2022-08-01T04:24:45;9.23;;;7.93;;
20888;SDS011;10604;51.976;7.594;2022-08-01T04:27:17;10.75;;;8.52;;
20888;SDS011;10604;51.976;7.594;2022-08-01T04:29:47;9.38;;;7.95;;
20888;SDS011;10604;51.976;7.594;2022-08-01T04:32:15;10.25;;;7.97;;
20888;SDS011;10604;51.976;7.594;2022-08-01T04:34:41;8.73;;;7.45;;
20888;SDS011;10604;51.976;7.594;2022-08-01T04:37:11;9.13;;;7.32;;
20888;SDS011;10604;51.976;7.594;2022-08-01T04:39:38;9.82;;;7.20;;
20888;SDS011;10604;51.976;7.594;2022-08-01T04:42:07;9.82;;;7.85;;
20888;SDS011;10604;51.976;7.594;2022-08-01T04:44:33;9.02;;;6.80;;
20888;SDS011;10604;51.976;7.594;2022-08-01T04:47:02;8.03;;;6.87;;
20888;SDS011;10604;51.976;7.594;2022-08-01T04:49:33;8.52;;;6.85;;
20888;SDS011;10604;51.976;7.594;2022-08-01T04:51:59;7.78;;;6.60;;
20888;SDS011;10604;51.976;7.594;2022-08-01T04:54:28;8.93;;;7.00;;
20888;SDS011;10604;51.976;7.594;2022-08-01T04:56:55;7.60;;;6.80;;
20888;SDS011;10604;51.976;7.594;2022-08-01T04:59:27;7.57;;;6.23;;
20888;SDS011;10604;51.976;7.594;2022-08-01T05:02:05;8.20;;;6.15;;
20888;SDS011;10604;51.976;7.594;2022-08-01T05:04:38;8.93;;;6.53;;
20888;SDS011;10604;51.976;7.594;2022-08-01T05:07:05;7.55;;;6.35;;
20888;SDS011;10604;51.976;7.594;2022-08-01T05:09:31;6.93;;;6.05;;
20888;SDS011;10604;51.976;7.594;2022-08-01T05:12:00;6.50;;;5.80;;
20888;SDS011;10604;51.976;7.594;2022-08-01T05:14:27;6.65;;;5.40;;
20888;SDS011;10604;51.976;7.594;2022-08-01T05:16:53;8.05;;;5.63;;
20888;SDS011;10604;51.976;7.594;2022-08-01T05:19:19;6.27;;;5.50;;
20888;SDS011;10604;51.976;7.594;2022-08-01T05:21:45;6.13;;;5.55;;
20888;SDS011;10604;51.976;7.594;2022-08-01T05:24:11;6.63;;;5.27;;
20888;SDS011;10604;51.976;7.594;2022-08-01T05:26:37;5.95;;;5.35;;
20888;SDS011;10604;51.976;7.594;2022-08-01T05:29:03;5.87;;;5.07;;
20888;SDS011;10604;51.976;7.594;2022-08-01T05:31:29;6.00;;;5.40;;
20888;SDS011;10604;51.976;7.594;2022-08-01T05:33:54;7.67;;;4.90;;
20888;SDS011;10604;51.976;7.594;2022-08-01T05:36:20;7.72;;;5.22;;
20888;SDS011;10604;51.976;7.594;2022-08-01T05:38:45;5.93;;;5.33;;
20888;SDS011;10604;51.976;7.594;2022-08-01T05:41:11;6.40;;;4.90;;
20888;SDS011;10604;51.976;7.594;2022-08-01T05:43:36;6.43;;;4.53;;
20888;SDS011;10604;51.976;7.594;2022-08-01T05:46:01;6.47;;;4.80;;
20888;SDS011;10604;51.976;7.594;2022-08-01T05:48:27;5.13;;;4.32;;
20888;SDS011;10604;51.976;7.594;2022-08-01T05:50:53;5.00;;;4.50;;
20888;SDS011;10604;51.976;7.594;2022-08-01T05:53:19;5.13;;;4.60;;
20888;SDS011;10604;51.976;7.594;2022-08-01T05:55:44;5.60;;;4.30;;
20888;SDS011;10604;51.976;7.594;2022-08-01T05:58:10;5.50;;;4.35;;
20888;SDS011;10604;51.976;7.594;2022-08-01T06:00:35;5.07;;;4.67;;
20888;SDS011;10604;51.976;7.594;2022-08-01T06:03:00;4.57;;;4.17;;
20888;SDS011;10604;51.976;7.594;2022-08-01T06:05:26;4.90;;;4.40;;
20888;SDS011;10604;51.976;7.594;2022-08-01T06:07:51;5.22;;;4.72;;
20888;SDS011;10604;51.976;7.594;2022-08-01T06:10:17;4.97;;;4.20;;
20888;SDS011;10604;51.976;7.594;2022-08-01T06:12:42;5.75;;;4.50;;
20888;SDS011;10604;51.976;7.594;2022-08-01T06:15:08;5.20;;;4.70;;
20888;SDS011;10604;51.976;7.594;2022-08-01T06:17:34;5.28;;;4.50;;
20888;SDS011;10604;51.976;7.594;2022-08-01T06:19:59;6.25;;;4.20;;
20888;SDS011;10604;51.976;7.594;2022-08-01T06:22:25;4.97;;;4.47;;
20888;SDS011;10604;51.976;7.594;2022-08-01T06:24:50;6.20;;;4.40;;
20888;SDS011;10604;51.976;7.594;2022-08-01T06:27:16;5.25;;;4.05;;
20888;SDS011;10604;51.976;7.594;2022-08-01T06:29:41;4.67;;;4.20;;
20888;SDS011;10604;51.976;7.594;2022-08-01T06:32:08;4.90;;;4.00;;
20888;SDS011;10604;51.976;7.594;2022-08-01T06:34:34;4.30;;;3.90;;
20888;SDS011;10604;51.976;7.594;2022-08-01T06:37:00;5.40;;;3.78;;
20888;SDS011;10604;51.976;7.594;2022-08-01T06:39:25;4.40;;;4.00;;
20888;SDS011;10604;51.976;7.594;2022-08-01T06:41:50;4.68;;;4.28;;
20888;SDS011;10604;51.976;7.594;2022-08-01T06:44:16;5.17;;;4.17;;
20888;SDS011;10604;51.976;7.594;2022-08-01T06:46:41;4.40;;;4.00;;
20888;SDS011;10604;51.976;7.594;2022-08-01T06:49:07;4.75;;;3.92;;
20888;SDS011;10604;51.976;7.594;2022-08-01T06:51:32;5.93;;;4.60;;
20888;SDS011;10604;51.976;7.594;2022-08-01T06:53:58;4.70;;;4.30;;
20888;SDS011;10604;51.976;7.594;2022-08-01T06:56:23;5.20;;;4.70;;
20888;SDS011;10604;51.976;7.594;2022-08-01T06:58:49;4.10;;;3.70;;
20888;SDS011;10604;51.976;7.594;2022-08-01T07:01:15;3.30;;;3.00;;
20888;SDS011;10604;51.976;7.594;2022-08-01T07:03:40;4.03;;;3.38;;
20888;SDS011;10604;51.976;7.594;2022-08-01T07:06:06;4.03;;;3.63;;
20888;SDS011;10604;51.976;7.594;2022-08-01T07:08:31;4.23;;;3.47;;
20888;SDS011;10604;51.976;7.594;2022-08-01T07:10:56;3.33;;;3.03;;
20888;SDS011;10604;51.976;7.594;2022-08-01T07:13:24;3.88;;;3.03;;
20888;SDS011;10604;51.976;7.594;2022-08-01T07:15:55;2.95;;;2.60;;
20888;SDS011;10604;51.976;7.594;2022-08-01T07:18:21;4.40;;;2.80;;
20888;SDS011;10604;51.976;7.594;2022-08-01T07:20:46;3.80;;;2.70;;
20888;SDS011;10604;51.976;7.594;2022-08-01T07:23:12;3.22;;;2.25;;
20888;SDS011;10604;51.976;7.594;2022-08-01T07:25:38;2.23;;;1.90;;
20888;SDS011;10604;51.976;7.594;2022-08-01T07:28:03;2.30;;;1.70;;
20888;SDS011;10604;51.976;7.594;2022-08-01T07:30:29;2.00;;;1.80;;
20888;SDS011;10604;51.976;7.594;2022-08-01T07:32:55;2.20;;;2.00;;
20888;SDS011;10604;51.976;7.594;2022-08-01T07:35:20;4.23;;;2.40;;
20888;SDS011;10604;51.976;7.594;2022-08-01T07:37:46;3.07;;;2.53;;
20888;SDS011;10604;51.976;7.594;2022-08-01T07:40:12;3.15;;;2.85;;
20888;SDS011;10604;51.976;7.594;2022-08-01T07:42:37;3.17;;;2.87;;
20888;SDS011;10604;51.976;7.594;2022-08-01T07:45:03;4.33;;;3.53;;
20888;SDS011;10604;51.976;7.594;2022-08-01T07:47:29;4.67;;;2.80;;
20888;SDS011;10604;51.976;7.594;2022-08-01T07:50:01;3.80;;;3.35;;
20888;SDS011;10604;51.976;7.594;2022-08-01T07:52:29;3.10;;;2.73;;
20888;SDS011;10604;51.976;7.594;2022-08-01T07:54:55;3.27;;;2.97;;
20888;SDS011;10604;51.976;7.594;2022-08-01T07:57:22;3.93;;;3.60;;
20888;SDS011;10604;51.976;7.594;2022-08-01T07:59:48;4.65;;;3.97;;
20888;SDS011;10604;51.976;7.594;2022-08-01T08:02:14;5.00;;;4.60;;
20888;SDS011;10604;51.976;7.594;2022-08-01T08:04:40;5.10;;;4.27;;
20888;SDS011;10604;51.976;7.594;2022-08-01T08:07:05;4.50;;;4.10;;
20888;SDS011;10604;51.976;7.594;2022-08-01T08:09:31;4.90;;;4.40;;
20888;SDS011;10604;51.976;7.594;2022-08-01T08:11:56;5.30;;;4.50;;
20888;SDS011;10604;51.976;7.594;2022-08-01T08:14:22;5.07;;;4.63;;
20888;SDS011;10604;51.976;7.594;2022-08-01T08:16:49;5.55;;;5.05;;
20888;SDS011;10604;51.976;7.594;2022-08-01T08:19:15;5.88;;;5.25;;
20888;SDS011;10604;51.976;7.594;2022-08-01T08:21:40;5.23;;;4.73;;
20888;SDS011;10604;51.976;7.594;2022-08-01T08:24:07;3.70;;;3.40;;
20888;SDS011;10604;51.976;7.594;2022-08-01T08:26:49;4.78;;;3.60;;
20888;SDS011;10604;51.976;7.594;2022-08-01T08:29:16;4.75;;;3.42;;
20888;SDS011;10604;51.976;7.594;2022-08-01T08:31:41;4.07;;;3.13;;
20888;SDS011;10604;51.976;7.594;2022-08-01T08:34:07;3.17;;;2.88;;
20888;SDS011;10604;51.976;7.594;2022-08-01T08:36:33;4.27;;;3.10;;
20888;SDS011;10604;51.976;7.594;2022-08-01T08:38:59;3.72;;;2.70;;
20888;SDS011;10604;51.976;7.594;2022-08-01T08:41:29;3.30;;;3.00;;
20888;SDS011;10604;51.976;7.594;2022-08-01T08:43:59;3.30;;;2.83;;
20888;SDS011;10604;51.976;7.594;2022-08-01T08:46:26;3.30;;;3.00;;
20888;SDS011;10604;51.976;7.594;2022-08-01T08:48:52;6.53;;;3.15;;
20888;SDS011;10604;51.976;7.594;2022-08-01T08:51:19;4.30;;;3.70;;
20888;SDS011;10604;51.976;7.594;2022-08-01T08:53:46;3.90;;;3.60;;
20888;SDS011;10604;51.976;7.594;2022-08-01T08:56:12;4.20;;;3.67;;
20888;SDS011;10604;51.976;7.594;2022-08-01T08:58:39;5.22;;;4.72;;
20888;SDS011;10604;51.976;7.594;2022-08-01T09:01:06;5.03;;;4.55;;
20888;SDS011;10604;51.976;7.594;2022-08-01T09:03:34;6.00;;;4.95;;
20888;SDS011;10604;51.976;7.594;2022-08-01T09:05:59;5.78;;;5.10;;
20888;SDS011;10604;51.976;7.594;2022-08-01T09:08:25;5.78;;;5.28;;
20888;SDS011;10604;51.976;7.594;2022-08-01T09:10:50;6.43;;;5.83;;
20888;SDS011;10604;51.976;7.594;2022-08-01T09:13:15;5.43;;;4.93;;
20888;SDS011;10604;51.976;7.594;2022-08-01T09:15:48;5.43;;;4.93;;
20888;SDS011;10604;51.976;7.594;2022-08-01T09:18:31;5.43;;;4.88;;
20888;SDS011;10604;51.976;7.594;2022-08-01T09:21:07;7.05;;;5.40;;
20888;SDS011;10604;51.976;7.594;2022-08-01T09:23:47;6.97;;;4.70;;
20888;SDS011;10604;51.976;7.594;2022-08-01T09:26:17;5.15;;;3.65;;
20888;SDS011;10604;51.976;7.594;2022-08-01T09:28:44;3.38;;;3.08;;
20888;SDS011;10604;51.976;7.594;2022-08-01T09:31:12;4.78;;;3.30;;
20888;SDS011;10604;51.976;7.594;2022-08-01T09:36:17;4.72;;;4.32;;
20888;SDS011;10604;51.976;7.594;2022-08-01T09:38:43;6.18;;;4.30;;
20888;SDS011;10604;51.976;7.594;2022-08-01T09:41:09;5.80;;;4.00;;
20888;SDS011;10604;51.976;7.594;2022-08-01T09:43:36;4.90;;;4.25;;
20888;SDS011;10604;51.976;7.594;2022-08-01T09:46:20;5.55;;;4.28;;
20888;SDS011;10604;51.976;7.594;2022-08-01T09:48:56;5.30;;;4.47;;
20888;SDS011;10604;51.976;7.594;2022-08-01T09:51:32;4.20;;;3.75;;
20888;SDS011;10604;51.976;7.594;2022-08-01T09:53:59;4.63;;;3.88;;
20888;SDS011;10604;51.976;7.594;2022-08-01T09:56:25;5.03;;;3.97;;
20888;SDS011;10604;51.976;7.594;2022-08-01T09:58:57;6.03;;;3.90;;
20888;SDS011;10604;51.976;7.594;2022-08-01T10:01:24;7.63;;;4.10;;
20888;SDS011;10604;51.976;7.594;2022-08-01T10:04:03;5.05;;;3.90;;
20888;SDS011;10604;51.976;7.594;2022-08-01T10:06:30;5.43;;;3.97;;
20888;SDS011;10604;51.976;7.594;2022-08-01T10:08:56;3.72;;;3.30;;
20888;SDS011;10604;51.976;7.594;2022-08-01T10:11:21;5.63;;;2.83;;
20888;SDS011;10604;51.976;7.594;2022-08-01T10:13:47;3.65;;;3.15;;
20888;SDS011;10604;51.976;7.594;2022-08-01T10:16:13;4.28;;;3.13;;
20888;SDS011;10604;51.976;7.594;2022-08-01T10:18:39;3.67;;;3.25;;
20888;SDS011;10604;51.976;7.594;2022-08-01T10:21:06;4.47;;;3.45;;
20888;SDS011;10604;51.976;7.594;2022-08-01T10:23:34;3.45;;;3.15;;
20888;SDS011;10604;51.976;7.594;2022-08-01T10:26:00;4.37;;;3.43;;
20888;SDS011;10604;51.976;7.594;2022-08-01T10:28:28;4.70;;;3.50;;
20888;SDS011;10604;51.976;7.594;2022-08-01T10:30:56;3.97;;;3.50;;
20888;SDS011;10604;51.976;7.594;2022-08-01T10:33:23;4.28;;;3.53;;
20888;SDS011;10604;51.976;7.594;2022-08-01T10:35:49;4.75;;;3.50;;
20888;SDS011;10604;51.976;7.594;2022-08-01T10:38:16;3.63;;;3.17;;
20888;SDS011;10604;51.976;7.594;2022-08-01T10:40:42;3.10;;;2.23;;
20888;SDS011;10604;51.976;7.594;2022-08-01T10:43:11;2.85;;;2.40;;
20888;SDS011;10604;51.976;7.594;2022-08-01T10:45:37;2.90;;;2.70;;
20888;SDS011;10604;51.976;7.594;2022-08-01T10:51:12;2.88;;;2.33;;
20888;SDS011;10604;51.976;7.594;2022-08-01T10:53:45;3.63;;;2.10;;
20888;SDS011;10604;51.976;7.594;2022-08-01T10:56:12;2.97;;;2.20;;
20888;SDS011;10604;51.976;7.594;2022-08-01T10:58:38;3.55;;;2.22;;
20888;SDS011;10604;51.976;7.594;2022-08-01T11:10:04;2.33;;;1.90;;
20888;SDS011;10604;51.976;7.594;2022-08-01T11:12:41;3.10;;;2.40;;
20888;SDS011;10604;51.976;7.594;2022-08-01T11:17:43;2.92;;;2.47;;
20888;SDS011;10604;51.976;7.594;2022-08-01T11:20:13;3.60;;;2.70;;
20888;SDS011;10604;51.976;7.594;2022-08-01T11:33:09;4.37;;;3.97;;
20888;SDS011;10604;51.976;7.594;2022-08-01T11:35:36;6.33;;;4.57;;
20888;SDS011;10604;51.976;7.594;2022-08-01T11:41:35;6.57;;;4.93;;
20888;SDS011;10604;51.976;7.594;2022-08-01T11:49:24;4.85;;;4.30;;
20888;SDS011;10604;51.976;7.594;2022-08-01T11:52:00;4.80;;;4.40;;
20888;SDS011;10604;51.976;7.594;2022-08-01T11:54:32;7.03;;;4.55;;
20888;SDS011;10604;51.976;7.594;2022-08-01T11:57:00;5.93;;;4.38;;
20888;SDS011;10604;51.976;7.594;2022-08-01T11:59:28;5.22;;;4.72;;
20888;SDS011;10604;51.976;7.594;2022-08-01T12:02:00;5.72;;;4.22;;
20888;SDS011;10604;51.976;7.594;2022-08-01T12:04:26;6.00;;;4.68;;
20888;SDS011;10604;51.976;7.594;2022-08-01T12:07:15;5.45;;;4.78;;
20888;SDS011;10604;51.976;7.594;2022-08-01T12:09:42;6.03;;;4.63;;
20888;SDS011;10604;51.976;7.594;2022-08-01T12:12:08;6.55;;;5.05;;
20888;SDS011;10604;51.976;7.594;2022-08-01T12:14:34;6.07;;;5.10;;
20888;SDS011;10604;51.976;7.594;2022-08-01T12:17:00;6.17;;;4.93;;
20888;SDS011;10604;51.976;7.594;2022-08-01T12:19:25;6.60;;;5.23;;
20888;SDS011;10604;51.976;7.594;2022-08-01T12:22:10;4.70;;;3.95;;
20888;SDS011;10604;51.976;7.594;2022-08-01T12:24:37;5.43;;;4.35;;
20888;SDS011;10604;51.976;7.594;2022-08-01T12:27:04;6.35;;;4.68;;
20888;SDS011;10604;51.976;7.594;2022-08-01T12:29:38;5.28;;;4.78;;
20888;SDS011;10604;51.976;7.594;2022-08-01T12:32:20;5.05;;;4.40;;
20888;SDS011;10604;51.976;7.594;2022-08-01T12:35:05;6.15;;;4.85;;
20888;SDS011;10604;51.976;7.594;2022-08-01T12:37:32;6.70;;;5.40;;
20888;SDS011;10604;51.976;7.594;2022-08-01T12:40:00;6.95;;;5.85;;
20888;SDS011;10604;51.976;7.594;2022-08-01T12:42:27;5.93;;;5.15;;
20888;SDS011;10604;51.976;7.594;2022-08-01T12:44:53;6.13;;;5.53;;
20888;SDS011;10604;51.976;7.594;2022-08-01T12:47:19;6.70;;;5.75;;
20888;SDS011;10604;51.976;7.594;2022-08-01T12:49:46;6.22;;;5.60;;
20888;SDS011;10604;51.976;7.594;2022-08-01T12:52:13;8.00;;;5.65;;
20888;SDS011;10604;51.976;7.594;2022-08-01T12:57:30;7.18;;;5.95;;
20888;SDS011;10604;51.976;7.594;2022-08-01T13:00:05;7.25;;;6.07;;
20888;SDS011;10604;51.976;7.594;2022-08-01T13:02:43;6.55;;;5.80;;
20888;SDS011;10604;51.976;7.594;2022-08-01T13:05:10;7.35;;;5.82;;
20888;SDS011;10604;51.976;7.594;2022-08-01T13:07:37;7.82;;;5.80;;
20888;SDS011;10604;51.976;7.594;2022-08-01T13:10:05;8.05;;;6.60;;
20888;SDS011;10604;51.976;7.594;2022-08-01T13:12:31;9.13;;;6.37;;
20888;SDS011;10604;51.976;7.594;2022-08-01T13:14:56;8.13;;;6.35;;
20888;SDS011;10604;51.976;7.594;2022-08-01T13:17:31;8.33;;;5.93;;
20888;SDS011;10604;51.976;7.594;2022-08-01T13:19:58;6.97;;;6.10;;
20888;SDS011;10604;51.976;7.594;2022-08-01T13:22:36;7.90;;;5.90;;
20888;SDS011;10604;51.976;7.594;2022-08-01T13:25:15;6.50;;;5.90;;
20888;SDS011;10604;51.976;7.594;2022-08-01T13:27:41;7.85;;;5.78;;
20888;SDS011;10604;51.976;7.594;2022-08-01T13:30:13;7.23;;;5.10;;
20888;SDS011;10604;51.976;7.594;2022-08-01T13:32:41;7.75;;;5.10;;
20888;SDS011;10604;51.976;7.594;2022-08-01T13:35:10;5.72;;;4.75;;
20888;SDS011;10604;51.976;7.594;2022-08-01T13:37:38;6.90;;;4.78;;
20888;SDS011;10604;51.976;7.594;2022-08-01T13:40:08;6.43;;;5.00;;
20888;SDS011;10604;51.976;7.594;2022-08-01T13:42:40;7.60;;;4.50;;
20888;SDS011;10604;51.976;7.594;2022-08-01T13:46:23;4.13;;;3.10;;
20888;SDS011;10604;51.976;7.594;2022-08-01T13:49:33;8.18;;;4.05;;
20888;SDS011;10604;51.976;7.594;2022-08-01T13:51:59;4.93;;;2.97;;
20888;SDS011;10604;51.976;7.594;2022-08-01T13:54:25;5.80;;;3.10;;
20888;SDS011;10604;51.976;7.594;2022-08-01T13:56:51;6.03;;;3.40;;
20888;SDS011;10604;51.976;7.594;2022-08-01T13:59:17;5.17;;;3.20;;
20888;SDS011;10604;51.976;7.594;2022-08-01T14:01:43;4.70;;;2.83;;
20888;SDS011;10604;51.976;7.594;2022-08-01T14:04:08;4.23;;;2.30;;
20888;SDS011;10604;51.976;7.594;2022-08-01T14:06:34;4.78;;;2.10;;
20888;SDS011;10604;51.976;7.594;2022-08-01T14:09:00;5.13;;;2.20;;
20888;SDS011;10604;51.976;7.594;2022-08-01T14:11:27;3.65;;;2.08;;
20888;SDS011;10604;51.976;7.594;2022-08-01T14:13:52;3.40;;;1.83;;
20888;SDS011;10604;51.976;7.594;2022-08-01T14:16:18;3.73;;;2.00;;
20888;SDS011;10604;51.976;7.594;2022-08-01T14:18:44;3.95;;;2.03;;
20888;SDS011;10604;51.976;7.594;2022-08-01T14:21:09;5.43;;;2.00;;
20888;SDS011;10604;51.976;7.594;2022-08-01T14:23:34;6.50;;;2.10;;
20888;SDS011;10604;51.976;7.594;2022-08-01T14:26:00;3.60;;;2.10;;
20888;SDS011;10604;51.976;7.594;2022-08-01T14:28:25;4.90;;;1.90;;
20888;SDS011;10604;51.976;7.594;2022-08-01T14:30:53;6.30;;;2.20;;
20888;SDS011;10604;51.976;7.594;2022-08-01T14:33:20;3.80;;;2.00;;
20888;SDS011;10604;51.976;7.594;2022-08-01T14:35:46;4.28;;;1.90;;
20888;SDS011;10604;51.976;7.594;2022-08-01T14:38:12;5.20;;;2.10;;
20888;SDS011;10604;51.976;7.594;2022-08-01T14:40:38;4.75;;;2.38;;
20888;SDS011;10604;51.976;7.594;2022-08-01T14:43:03;4.10;;;2.20;;
20888;SDS011;10604;51.976;7.594;2022-08-01T14:45:29;6.07;;;2.37;;
20888;SDS011;10604;51.976;7.594;2022-08-01T14:47:54;7.40;;;2.40;;
20888;SDS011;10604;51.976;7.594;2022-08-01T14:50:20;6.07;;;2.80;;
20888;SDS011;10604;51.976;7.594;2022-08-01T14:52:46;4.65;;;2.40;;
20888;SDS011;10604;51.976;7.594;2022-08-01T14:55:11;8.07;;;2.57;;
20888;SDS011;10604;51.976;7.594;2022-08-01T14:57:38;4.07;;;2.58;;
20888;SDS011;10604;51.976;7.594;2022-08-01T15:00:05;5.10;;;2.50;;
20888;SDS011;10604;51.976;7.594;2022-08-01T15:02:35;7.38;;;2.42;;
20888;SDS011;10604;51.976;7.594;2022-08-01T15:05:01;7.37;;;2.47;;
20888;SDS011;10604;51.976;7.594;2022-08-01T15:07:26;5.40;;;2.30;;
20888;SDS011;10604;51.976;7.594;2022-08-01T15:09:51;7.53;;;2.87;;
20888;SDS011;10604;51.976;7.594;2022-08-01T15:12:17;5.78;;;2.60;;
20888;SDS011;10604;51.976;7.594;2022-08-01T15:14:43;5.27;;;2.60;;
20888;SDS011;10604;51.976;7.594;2022-08-01T15:17:25;7.82;;;2.78;;
20888;SDS011;10604;51.976;7.594;2022-08-01T15:19:57;4.68;;;2.75;;
20888;SDS011;10604;51.976;7.594;2022-08-01T15:22:27;6.32;;;2.78;;
20888;SDS011;10604;51.976;7.594;2022-08-01T15:24:53;6.03;;;2.80;;
20888;SDS011;10604;51.976;7.594;2022-08-01T15:27:20;6.03;;;2.60;;
20888;SDS011;10604;51.976;7.594;2022-08-01T15:29:48;7.70;;;2.85;;
20888;SDS011;10604;51.976;7.594;2022-08-01T15:32:14;6.07;;;2.90;;
20888;SDS011;10604;51.976;7.594;2022-08-01T15:34:40;7.60;;;2.95;;
20888;SDS011;10604;51.976;7.594;2022-08-01T15:37:07;6.90;;;3.08;;
20888;SDS011;10604;51.976;7.594;2022-08-01T15:39:33;5.47;;;2.65;;
20888;SDS011;10604;51.976;7.594;2022-08-01T15:42:00;7.38;;;2.78;;